Time;durP1;ratioP1;P1;durP2;ratioP2;P2;SDS_P1;SDS_P2;PMS_P1;PMS_P2;Temp;Humidity;BMP_temperature;BMP_pressure;BME280_temperature;BME280_humidity;BME280_pressure;Samples;Min_cycle;Max_cycle;Signal;HPM_P1;HPM_P2
2021/07/24 00:01:52;;;;;;;;;;;;;;;26.61;45.39;100665.34;1778431;79;20203;-59
2021/07/24 00:04:18;;;;;;;;;;;;;;;26.61;45.40;100660.35;1774385;80;21335;-59
2021/07/24 00:06:48;;;;;;;;;;;;;;;26.60;45.45;100653.98;1780514;80;20551;-59
2021/07/24 00:09:14;;;;;;;;;;;;;;;26.60;45.46;100657.36;1775760;79;20227;-59
2021/07/24 00:11:40;;;;;;;;;;;;;;;26.60;45.50;100655.97;1768901;79;20749;-59
2021/07/24 00:14:06;;;;;;;;;;;;;;;26.58;45.52;100649.92;1775107;79;20733;-60
2021/07/24 00:16:31;;;;;;;;;;;;;;;26.58;45.57;100651.31;1781509;79;21172;-59
2021/07/24 00:18:57;;;;;;;;;;;;;;;26.60;45.59;100651.78;1780698;79;20167;-60
2021/07/24 00:21:23;;;;;;;;;;;;;;;26.59;45.60;100651.55;1778400;79;20221;-60
2021/07/24 00:23:49;;;;;;;;;;;;;;;26.60;45.65;100657.36;1771140;79;20875;-60
2021/07/24 00:26:15;;;;;;;;;;;;;;;26.59;45.66;100654.34;1772018;80;20159;-60
2021/07/24 00:28:41;;;;;;;;;;;;;;;26.59;45.71;100657.94;1779060;79;21065;-59
2021/07/24 00:31:07;;;;;;;;;;;;;;;26.58;45.74;100652.71;1780155;80;20266;-60
2021/07/24 00:33:33;;;;;;;;;;;;;;;26.59;45.77;100655.73;1776328;79;20269;-60
2021/07/24 00:35:59;;;;;;;;;;;;;;;26.59;45.79;100654.34;1777966;79;20269;-60
2021/07/24 00:38:25;;;;;;;;;;;;;;;26.58;45.83;100653.52;1772339;79;20223;-60
2021/07/24 00:40:55;;;;;;;;;;;;;;;26.58;45.86;100654.92;1771366;79;21221;-59
2021/07/24 00:43:28;;;;;;;;;;;;;;;26.58;45.89;100659.69;1774698;79;20504;-60
2021/07/24 00:45:55;;;;;;;;;;;;;;;26.58;45.91;100652.12;1776821;80;20150;-60
2021/07/24 00:48:21;;;;;;;;;;;;;;;26.59;45.93;100655.73;1777806;80;20731;-59
2021/07/24 00:50:48;;;;;;;;;;;;;;;26.57;45.98;100646.32;1771449;79;20227;-60
2021/07/24 00:53:21;;;;;;;;;;;;;;;26.57;46.00;100648.30;1776291;80;20939;-59
2021/07/24 00:55:42;;;;;;;;;;;;;;;26.58;46.04;100659.69;1776420;80;20136;-60
2021/07/24 00:58:31;;;;;;;;;;;;;;;26.57;46.06;100660.85;1778197;79;20134;-60
2021/07/24 01:00:57;;;;;;;;;;;;;;;26.56;46.10;100654.48;1778716;79;20865;-61
2021/07/24 01:03:23;;;;;;;;;;;;;;;26.56;46.12;100645.30;1774916;79;20992;-60
2021/07/24 01:05:51;;;;;;;;;;;;;;;26.56;46.16;100646.12;1782099;80;20958;-60
2021/07/24 01:08:17;;;;;;;;;;;;;;;26.55;46.17;100642.28;1775302;79;20195;-60
2021/07/24 01:10:43;;;;;;;;;;;;;;;26.55;46.21;100642.28;1773527;80;20217;-60
2021/07/24 01:13:09;;;;;;;;;;;;;;;26.55;46.25;100639.50;1771534;79;20318;-60
2021/07/24 01:15:35;;;;;;;;;;;;;;;26.55;46.26;100636.13;1771689;79;20301;-60
2021/07/24 01:18:01;;;;;;;;;;;;;;;26.54;46.29;100635.89;1804085;78;21330;-60
2021/07/24 01:20:27;;;;;;;;;;;;;;;26.55;46.31;100636.70;1758427;80;20237;-60
2021/07/24 01:22:53;;;;;;;;;;;;;;;26.55;46.36;100638.91;1789811;78;20207;-60
2021/07/24 01:25:19;;;;;;;;;;;;;;;26.54;46.37;100635.89;1793373;78;20239;-60
2021/07/24 01:27:45;;;;;;;;;;;;;;;26.55;46.40;100636.70;1780657;78;20279;-60
2021/07/24 01:30:12;;;;;;;;;;;;;;;26.55;46.43;100633.91;1770694;78;22593;-61
2021/07/24 01:32:38;;;;;;;;;;;;;;;26.54;46.46;100635.08;1771516;78;20462;-61
2021/07/24 01:35:05;;;;;;;;;;;;;;;26.54;46.47;100637.87;1768822;78;20181;-60
2021/07/24 01:37:31;;;;;;;;;;;;;;;26.54;46.49;100640.08;1766695;78;20757;-60
2021/07/24 01:39:57;;;;;;;;;;;;;;;26.53;46.52;100648.22;1772707;79;20827;-60
2021/07/24 01:42:23;;;;;;;;;;;;;;;26.53;46.53;100638.45;1774939;78;21854;-60
2021/07/24 01:44:48;;;;;;;;;;;;;;;26.53;46.56;100643.22;1774002;78;20224;-60
2021/07/24 01:47:14;;;;;;;;;;;;;;;26.53;46.58;100644.61;1769041;78;20166;-60
2021/07/24 01:52:47;;;;;;;;;;;;;;;26.52;46.64;100639.61;1768838;78;20222;-60
2021/07/24 01:55:26;;;;;;;;;;;;;;;26.52;46.65;100636.82;1776306;78;21202;-60
2021/07/24 01:57:53;;;;;;;;;;;;;;;26.53;46.66;100636.24;1772363;78;20314;-60
2021/07/24 02:00:19;;;;;;;;;;;;;;;26.52;46.70;100638.83;1771186;78;20218;-60
2021/07/24 02:02:47;;;;;;;;;;;;;;;26.51;46.71;100635.23;1772772;78;20196;-60
2021/07/24 02:05:19;;;;;;;;;;;;;;;26.51;46.71;100631.05;1771638;78;20187;-60
2021/07/24 02:07:45;;;;;;;;;;;;;;;26.52;46.76;100626.27;1759306;78;20188;-61
2021/07/24 02:10:11;;;;;;;;;;;;;;;26.51;46.77;100640.00;1767278;78;21648;-60
2021/07/24 02:12:37;;;;;;;;;;;;;;;26.50;46.80;100641.97;1764456;78;20443;-61
2021/07/24 02:15:05;;;;;;;;;;;;;;;26.51;46.81;100646.97;1736117;79;21145;-60
2021/07/24 02:17:31;;;;;;;;;;;;;;;26.50;46.83;100644.77;1772842;78;20479;-60
2021/07/24 02:19:58;;;;;;;;;;;;;;;26.52;46.86;100647.20;1775819;78;23294;-60
2021/07/24 02:22:24;;;;;;;;;;;;;;;26.49;46.87;100639.53;1769068;78;20488;-60
2021/07/24 02:24:50;;;;;;;;;;;;;;;26.49;46.90;100638.95;1773857;79;20789;-60
2021/07/24 02:27:16;;;;;;;;;;;;;;;26.51;46.91;100649.76;1771168;78;21083;-61
2021/07/24 02:29:42;;;;;;;;;;;;;;;26.50;46.93;100648.13;1790411;78;20292;-60
2021/07/24 02:32:08;;;;;;;;;;;;;;;26.49;46.96;100639.53;1791803;78;21074;-60
2021/07/24 02:34:34;;;;;;;;;;;;;;;26.49;46.99;100640.34;1793748;78;20215;-60
2021/07/24 02:37:00;;;;;;;;;;;;;;;26.50;47.00;100642.55;1792048;78;20209;-61
2021/07/24 02:39:26;;;;;;;;;;;;;;;26.50;47.04;100646.73;1790064;79;20705;-60
2021/07/24 02:41:52;;;;;;;;;;;;;;;26.50;47.04;100643.37;1789621;78;20167;-60
2021/07/24 02:44:17;;;;;;;;;;;;;;;26.49;47.06;100637.55;1794216;78;21123;-60
2021/07/24 02:46:43;;;;;;;;;;;;;;;26.49;47.08;100641.73;1759952;80;20173;-60
2021/07/24 02:49:09;;;;;;;;;;;;;;;26.48;47.12;100636.55;1775766;80;20228;-61
2021/07/24 02:51:35;;;;;;;;;;;;;;;26.49;47.13;100643.14;1768729;80;20742;-61
2021/07/24 02:54:01;;;;;;;;;;;;;;;26.48;47.13;100645.70;1766979;80;20798;-62
2021/07/24 02:56:27;;;;;;;;;;;;;;;26.48;47.14;100644.30;1774196;80;22027;-60
2021/07/24 02:58:53;;;;;;;;;;;;;;;26.48;47.17;100639.33;1764154;80;20133;-60
2021/07/24 03:01:19;;;;;;;;;;;;;;;26.48;47.19;100633.75;1770686;80;20226;-61
2021/07/24 03:03:44;;;;;;;;;;;;;;;26.48;47.20;100637.94;1769235;80;20191;-61
2021/07/24 03:06:10;;;;;;;;;;;;;;;26.48;47.21;100650.49;1794764;78;20760;-60
2021/07/24 03:08:36;;;;;;;;;;;;;;;26.49;47.23;100645.92;1790730;78;21829;-59
2021/07/24 03:11:02;;;;;;;;;;;;;;;26.48;47.25;100645.70;1760665;80;20188;-59
2021/07/24 03:13:28;;;;;;;;;;;;;;;26.48;47.26;100642.12;1781793;79;20265;-59
2021/07/24 03:15:54;;;;;;;;;;;;;;;26.48;47.27;100643.52;1780476;79;20682;-58
2021/07/24 03:18:19;;;;;;;;;;;;;;;26.48;47.30;100646.31;1783200;79;20206;-59
2021/07/24 03:20:45;;;;;;;;;;;;;;;26.48;47.32;100649.09;1775557;79;20969;-59
2021/07/24 03:23:11;;;;;;;;;;;;;;;26.47;47.33;100646.08;1779691;79;20194;-59
2021/07/24 03:25:42;;;;;;;;;;;;;;;26.46;47.32;100641.08;1782887;79;20721;-59
2021/07/24 03:28:08;;;;;;;;;;;;;;;26.47;47.37;100651.08;1778699;79;20626;-59
2021/07/24 03:30:36;;;;;;;;;;;;;;;26.47;47.37;100651.66;1777467;79;20213;-59
2021/07/24 03:33:02;;;;;;;;;;;;;;;26.46;47.39;100652.23;1775627;79;21255;-59
2021/07/24 03:35:28;;;;;;;;;;;;;;;26.47;47.40;100655.26;1776247;79;20212;-59
2021/07/24 03:37:53;;;;;;;;;;;;;;;26.47;47.42;100660.02;1777795;79;20212;-59
2021/07/24 03:40:20;;;;;;;;;;;;;;;26.47;47.44;100663.63;1776428;79;20244;-58
2021/07/24 03:42:46;;;;;;;;;;;;;;;26.47;47.46;100661.42;1779145;79;20159;-59
2021/07/24 03:45:12;;;;;;;;;;;;;;;26.47;47.46;100661.42;1780749;79;21022;-59
2021/07/24 03:47:38;;;;;;;;;;;;;;;26.47;47.47;100659.44;1779300;79;20374;-59
2021/07/24 03:50:05;;;;;;;;;;;;;;;26.46;47.51;100662.58;1778037;79;20269;-59
2021/07/24 03:52:31;;;;;;;;;;;;;;;26.46;47.52;100664.80;1780213;79;20391;-60
2021/07/24 03:54:57;;;;;;;;;;;;;;;26.46;47.52;100667.58;1778764;79;20824;-59
2021/07/24 03:57:24;;;;;;;;;;;;;;;26.46;47.54;100666.19;1775513;79;20882;-59
2021/07/24 03:59:49;;;;;;;;;;;;;;;26.47;47.55;100671.19;1780387;79;20112;-60
2021/07/24 04:02:19;;;;;;;;;;;;;;;26.47;47.55;100664.20;1778452;79;20206;-60
2021/07/24 04:04:45;;;;;;;;;;;;;;;26.46;47.59;100668.16;1776783;79;20211;-59
2021/07/24 04:07:11;;;;;;;;;;;;;;;26.45;47.62;100667.34;1776777;79;20249;-59
2021/07/24 04:09:37;;;;;;;;;;;;;;;26.45;47.55;100668.74;1720326;80;21146;-60
2021/07/24 04:12:04;;;;;;;;;;;;;;;26.46;47.52;100669.56;1777579;79;20235;-60
2021/07/24 04:14:30;;;;;;;;;;;;;;;26.45;47.40;100663.75;1777581;79;20231;-59
2021/07/24 04:16:56;;;;;;;;;;;;;;;26.44;47.34;100667.12;1774185;79;20192;-59
2021/07/24 04:19:22;;;;;;;;;;;;;;;26.43;47.27;100672.50;1775706;79;20882;-59
2021/07/24 04:21:48;;;;;;;;;;;;;;;26.43;47.21;100668.89;1775011;79;21912;-60
2021/07/24 04:24:15;;;;;;;;;;;;;;;26.40;47.17;100661.22;1771230;79;20190;-60
2021/07/24 04:26:41;;;;;;;;;;;;;;;26.41;47.15;100667.84;1770188;79;20103;-61
2021/07/24 04:29:09;;;;;;;;;;;;;;;26.40;47.13;100664.02;1778594;79;20554;-61
2021/07/24 04:31:36;;;;;;;;;;;;;;;26.40;47.10;100668.20;1783617;79;20243;-61
2021/07/24 04:34:02;;;;;;;;;;;;;;;26.40;47.06;100669.59;1782156;79;21969;-61
2021/07/24 04:36:27;;;;;;;;;;;;;;;26.40;47.01;100670.98;1780883;79;20253;-61
2021/07/24 04:38:53;;;;;;;;;;;;;;;26.40;46.98;100676.56;1779225;79;20174;-60
2021/07/24 04:41:21;;;;;;;;;;;;;;;26.40;46.94;100675.17;1780008;79;20190;-61
2021/07/24 04:43:47;;;;;;;;;;;;;;;26.40;46.91;100679.36;1782818;79;20193;-62
2021/07/24 04:46:13;;;;;;;;;;;;;;;26.40;46.85;100679.36;1778492;79;21008;-61
2021/07/24 04:48:39;;;;;;;;;;;;;;;26.40;46.90;100682.95;1778136;79;20170;-60
2021/07/24 04:51:05;;;;;;;;;;;;;;;26.41;46.90;100679.00;1786129;79;21012;-60
2021/07/24 04:53:32;;;;;;;;;;;;;;;26.42;46.89;100675.63;1783581;79;20206;-60
2021/07/24 04:55:58;;;;;;;;;;;;;;;26.41;46.82;100673.42;1784461;79;20498;-60
2021/07/24 04:58:24;;;;;;;;;;;;;;;26.41;46.79;100680.40;1784627;79;21963;-61
2021/07/24 05:00:50;;;;;;;;;;;;;;;26.42;46.77;100681.21;1786420;79;20183;-61
2021/07/24 05:03:16;;;;;;;;;;;;;;;26.42;46.77;100681.21;1783237;79;20582;-61
2021/07/24 05:05:42;;;;;;;;;;;;;;;26.43;46.79;100681.45;1783496;79;20539;-61
2021/07/24 05:08:08;;;;;;;;;;;;;;;26.43;46.79;100680.87;1781456;79;20201;-60
2021/07/24 05:10:35;;;;;;;;;;;;;;;26.44;46.82;100678.89;1777511;79;21274;-61
2021/07/24 05:13:01;;;;;;;;;;;;;;;26.44;46.83;100681.06;1779534;79;20596;-61
2021/07/24 05:15:27;;;;;;;;;;;;;;;26.45;46.84;100684.67;1787539;79;20127;-61
2021/07/24 05:17:53;;;;;;;;;;;;;;;26.44;46.84;100682.46;1784111;79;20203;-61
2021/07/24 05:20:19;;;;;;;;;;;;;;;26.46;46.84;100684.91;1781213;79;20238;-61
2021/07/24 05:22:45;;;;;;;;;;;;;;;26.45;46.84;100682.69;1784058;79;21162;-61
2021/07/24 05:25:11;;;;;;;;;;;;;;;26.46;46.88;100687.69;1785990;79;20218;-60
2021/07/24 05:27:37;;;;;;;;;;;;;;;26.46;46.86;100688.50;1785072;79;20374;-60
2021/07/24 05:30:04;;;;;;;;;;;;;;;26.46;46.88;100687.11;1777631;79;20481;-61
2021/07/24 05:32:30;;;;;;;;;;;;;;;26.46;46.90;100683.51;1781809;79;20400;-61
2021/07/24 05:34:56;;;;;;;;;;;;;;;26.47;46.92;100688.73;1778219;79;21568;-61
2021/07/24 05:37:21;;;;;;;;;;;;;;;26.48;46.91;100686.15;1782538;79;20323;-61
2021/07/24 05:39:47;;;;;;;;;;;;;;;26.48;46.92;100689.55;1778506;79;20254;-61
2021/07/24 05:42:13;;;;;;;;;;;;;;;26.48;46.94;100695.91;1781184;79;20222;-61
2021/07/24 05:44:39;;;;;;;;;;;;;;;26.49;46.94;100689.17;1781622;79;20162;-61
2021/07/24 05:47:05;;;;;;;;;;;;;;;26.49;46.95;100697.54;1779184;79;21136;-61
2021/07/24 05:49:31;;;;;;;;;;;;;;;26.50;46.97;100695.56;1782380;79;20136;-61
2021/07/24 05:51:57;;;;;;;;;;;;;;;26.50;46.94;100694.98;1779656;79;20160;-61
2021/07/24 05:54:23;;;;;;;;;;;;;;;26.51;46.96;100707.77;1776185;79;20228;-61
2021/07/24 05:56:50;;;;;;;;;;;;;;;26.52;46.97;100703.78;1776174;79;20439;-60
2021/07/24 05:59:15;;;;;;;;;;;;;;;26.52;46.96;100703.78;1780814;79;21129;-61
2021/07/24 06:01:41;;;;;;;;;;;;;;;26.52;46.97;100702.39;1777334;79;20200;-61
2021/07/24 06:04:08;;;;;;;;;;;;;;;26.54;46.96;100700.64;1776447;79;20202;-60
2021/07/24 06:06:34;;;;;;;;;;;;;;;26.53;46.98;100701.23;1776012;79;20436;-60
2021/07/24 06:09:00;;;;;;;;;;;;;;;26.55;47.00;100703.67;1779714;79;20168;-60
2021/07/24 06:11:26;;;;;;;;;;;;;;;26.55;47.00;100698.09;1781483;79;21115;-60
2021/07/24 06:13:52;;;;;;;;;;;;;;;26.55;47.00;100700.88;1776624;79;20829;-60
2021/07/24 06:16:18;;;;;;;;;;;;;;;26.57;46.99;100705.50;1776356;79;20100;-59
2021/07/24 06:18:44;;;;;;;;;;;;;;;26.56;47.01;100701.92;1781622;79;20557;-60
2021/07/24 06:21:14;;;;;;;;;;;;;;;26.56;47.01;100698.32;1778811;79;20183;-60
2021/07/24 06:23:40;;;;;;;;;;;;;;;26.57;47.00;100701.31;1775624;79;23275;-60
2021/07/24 06:26:06;;;;;;;;;;;;;;;26.57;47.02;100697.94;1780370;79;20170;-59
2021/07/24 06:28:32;;;;;;;;;;;;;;;26.57;47.02;100701.31;1780976;79;20246;-59
2021/07/24 06:31:01;;;;;;;;;;;;;;;26.58;47.01;100702.94;1781701;79;20163;-59
2021/07/24 06:33:27;;;;;;;;;;;;;;;26.58;47.03;100705.73;1776241;79;20244;-60
2021/07/24 06:35:52;;;;;;;;;;;;;;;26.58;47.03;100702.36;1780152;79;21286;-60
2021/07/24 06:38:18;;;;;;;;;;;;;;;26.58;47.02;100705.73;1778687;79;20264;-60
2021/07/24 06:40:44;;;;;;;;;;;;;;;26.59;47.04;100712.94;1778759;79;20160;-59
2021/07/24 06:43:10;;;;;;;;;;;;;;;26.58;47.03;100709.91;1780712;79;20139;-60
2021/07/24 06:45:37;;;;;;;;;;;;;;;26.58;47.06;100713.52;1775944;79;20851;-60
2021/07/24 06:48:04;;;;;;;;;;;;;;;26.58;47.06;100713.52;1773786;79;21082;-60
2021/07/24 06:50:29;;;;;;;;;;;;;;;26.59;47.05;100711.55;1773283;79;20427;-60
2021/07/24 06:52:59;;;;;;;;;;;;;;;26.59;47.06;100715.14;1781229;79;20606;-59
2021/07/24 06:55:26;;;;;;;;;;;;;;;26.59;47.05;100714.33;1776398;79;20402;-59
2021/07/24 06:57:52;;;;;;;;;;;;;;;26.60;47.07;100718.17;1776700;79;20231;-60
2021/07/24 07:00:19;;;;;;;;;;;;;;;26.60;47.08;100720.96;1780253;79;21134;-59
2021/07/24 07:02:45;;;;;;;;;;;;;;;26.60;47.07;100719.56;1774898;79;20148;-59
2021/07/24 07:05:11;;;;;;;;;;;;;;;26.60;47.10;100713.98;1781133;79;20768;-60
2021/07/24 07:07:37;;;;;;;;;;;;;;;26.61;47.10;100716.16;1779812;79;20457;-59
2021/07/24 07:10:04;;;;;;;;;;;;;;;26.61;47.11;100716.97;1776158;79;20196;-59
2021/07/24 07:12:30;;;;;;;;;;;;;;;26.61;47.14;100711.39;1776662;79;21314;-59
2021/07/24 07:14:58;;;;;;;;;;;;;;;26.63;47.19;100715.23;1777444;79;20138;-59
2021/07/24 07:17:24;;;;;;;;;;;;;;;26.64;47.24;100715.46;1776416;79;20523;-59
2021/07/24 07:19:50;;;;;;;;;;;;;;;26.64;47.28;100716.86;1774378;79;20624;-59
2021/07/24 07:22:15;;;;;;;;;;;;;;;26.65;47.31;100711.50;1774420;79;20270;-59
2021/07/24 07:24:41;;;;;;;;;;;;;;;26.66;47.39;100715.31;1776164;79;21135;-59
2021/07/24 07:27:07;;;;;;;;;;;;;;;26.67;47.52;100711.94;1775997;79;20301;-60
2021/07/24 07:29:33;;;;;;;;;;;;;;;26.67;47.61;100712.75;1783904;79;20504;-59
2021/07/24 07:31:59;;;;;;;;;;;;;;;26.66;47.71;100710.31;1774519;79;20270;-60
2021/07/24 07:34:25;;;;;;;;;;;;;;;26.64;47.78;100712.09;1780160;79;20708;-58
2021/07/24 07:36:51;;;;;;;;;;;;;;;26.64;47.83;100701.51;1774366;79;20954;-59
2021/07/24 07:39:17;;;;;;;;;;;;;;;26.63;47.84;100713.25;1779026;79;20269;-60
2021/07/24 07:41:42;;;;;;;;;;;;;;;26.62;47.86;100706.05;1773581;79;20191;-59
2021/07/24 07:44:08;;;;;;;;;;;;;;;26.61;47.76;100709.19;1775811;79;20677;-59
2021/07/24 07:46:34;;;;;;;;;;;;;;;26.58;47.67;100704.33;1779785;79;20190;-59
2021/07/24 07:49:01;;;;;;;;;;;;;;;26.55;47.59;100712.04;1777066;79;21182;-60
2021/07/24 07:51:26;;;;;;;;;;;;;;;26.52;47.54;100721.14;1777574;79;20505;-59
2021/07/24 07:53:52;;;;;;;;;;;;;;;26.49;47.49;100718.47;1774520;79;20809;-60
2021/07/24 07:56:18;;;;;;;;;;;;;;;26.47;47.44;100713.03;1770039;79;20238;-59
2021/07/24 07:58:44;;;;;;;;;;;;;;;26.45;47.33;100720.94;1773130;79;20286;-59
2021/07/24 08:01:11;;;;;;;;;;;;;;;26.41;47.29;100713.88;1777245;79;21087;-60
2021/07/24 08:03:38;;;;;;;;;;;;;;;26.39;47.22;100711.23;1777159;79;20139;-60
2021/07/24 08:06:03;;;;;;;;;;;;;;;26.38;47.13;100715.19;1775477;79;20236;-59
2021/07/24 08:08:29;;;;;;;;;;;;;;;26.35;47.09;100718.91;1773983;79;20214;-59
2021/07/24 08:10:55;;;;;;;;;;;;;;;26.32;47.02;100721.61;1777985;79;20238;-60
2021/07/24 08:13:21;;;;;;;;;;;;;;;26.29;46.97;100723.14;1773978;79;21339;-59
2021/07/24 08:15:48;;;;;;;;;;;;;;;26.28;46.92;100720.12;1773653;79;20696;-59
2021/07/24 08:18:14;;;;;;;;;;;;;;;26.26;46.89;100732.23;1774404;79;20247;-60
2021/07/24 08:20:41;;;;;;;;;;;;;;;26.24;46.82;100727.58;1777189;79;20249;-58
2021/07/24 08:23:08;;;;;;;;;;;;;;;26.22;46.77;100727.15;1773459;79;20486;-59
2021/07/24 08:25:35;;;;;;;;;;;;;;;26.20;46.71;100723.08;1778640;79;21166;-60
2021/07/24 08:28:01;;;;;;;;;;;;;;;26.16;46.66;100725.75;1775693;79;20215;-59
2021/07/24 08:30:27;;;;;;;;;;;;;;;26.16;46.60;100721.56;1774666;79;20495;-59
2021/07/24 08:32:53;;;;;;;;;;;;;;;26.13;46.53;100723.68;1775147;79;20502;-59
2021/07/24 08:35:19;;;;;;;;;;;;;;;26.11;46.48;100723.22;1777541;79;20258;-59
2021/07/24 08:37:45;;;;;;;;;;;;;;;26.10;46.38;100714.61;1776872;79;20989;-59
2021/07/24 08:40:12;;;;;;;;;;;;;;;26.08;46.30;100713.36;1776565;79;20427;-59
2021/07/24 08:42:41;;;;;;;;;;;;;;;26.06;46.26;100710.92;1777583;79;20246;-59
2021/07/24 08:45:08;;;;;;;;;;;;;;;26.05;46.17;100712.69;1773659;79;20246;-58
2021/07/24 08:47:34;;;;;;;;;;;;;;;26.03;46.07;100708.85;1768983;79;20224;-58
2021/07/24 08:50:01;;;;;;;;;;;;;;;26.02;46.00;100711.41;1770689;79;21174;-59
2021/07/24 08:52:28;;;;;;;;;;;;;;;26.00;45.91;100709.58;1775194;79;20215;-59
2021/07/24 08:54:55;;;;;;;;;;;;;;;26.00;45.85;100710.16;1774742;79;20144;-59
2021/07/24 08:57:25;;;;;;;;;;;;;;;25.98;45.75;100718.86;1773883;79;20225;-60
2021/07/24 08:59:50;;;;;;;;;;;;;;;25.97;45.67;100707.48;1777614;79;20161;-60
2021/07/24 09:02:23;;;;;;;;;;;;;;;25.95;45.60;100708.44;1777305;79;20995;-59
2021/07/24 09:04:49;;;;;;;;;;;;;;;25.93;45.51;100707.39;1778287;79;21634;-58
2021/07/24 09:07:15;;;;;;;;;;;;;;;25.92;45.42;100704.98;1779085;79;20270;-59
2021/07/24 09:09:41;;;;;;;;;;;;;;;25.89;45.33;100702.88;1777170;79;20155;-58
2021/07/24 09:12:07;;;;;;;;;;;;;;;25.88;45.25;100710.45;1743572;80;20286;-59
2021/07/24 09:14:33;;;;;;;;;;;;;;;25.87;45.20;100705.23;1772722;80;21134;-59
2021/07/24 09:17:00;;;;;;;;;;;;;;;25.85;45.13;100704.76;1774871;79;20244;-58
2021/07/24 09:19:26;;;;;;;;;;;;;;;25.86;45.15;100702.20;1743867;79;20205;-59
2021/07/24 09:21:52;;;;;;;;;;;;;;;25.87;45.18;100695.47;1774249;79;20261;-58
2021/07/24 09:24:23;;;;;;;;;;;;;;;25.90;45.20;100698.35;1781973;79;20187;-56
2021/07/24 09:26:49;;;;;;;;;;;;;;;25.95;45.22;100699.26;1776029;79;21124;-56
2021/07/24 09:29:16;;;;;;;;;;;;;;;25.99;45.25;100695.41;1744005;80;20197;-59
2021/07/24 09:31:42;;;;;;;;;;;;;;;26.04;45.26;100695.73;1772330;78;20096;-57
2021/07/24 09:34:09;;;;;;;;;;;;;;;26.06;45.28;100698.37;1775766;80;20633;-58
2021/07/24 09:36:36;;;;;;;;;;;;;;;26.10;45.33;100696.48;1775019;80;20220;-59
2021/07/24 09:39:17;;;;;;;;;;;;;;;26.13;45.39;100701.95;1778104;80;20566;-59
2021/07/24 09:41:45;;;;;;;;;;;;;;;26.16;45.39;100699.84;1776696;80;20386;-59
2021/07/24 09:44:12;;;;;;;;;;;;;;;26.20;45.41;100702.98;1773837;79;20168;-59
2021/07/24 09:46:37;;;;;;;;;;;;;;;26.23;45.44;100701.44;1774792;79;20231;-58
2021/07/24 09:49:14;;;;;;;;;;;;;;;26.26;45.46;100694.59;1773505;79;20827;-60
2021/07/24 09:51:41;;;;;;;;;;;;;;;26.29;45.47;100695.25;1771676;79;21255;-58
2021/07/24 09:54:09;;;;;;;;;;;;;;;26.33;45.47;100696.73;1773715;79;21583;-61
2021/07/24 09:56:41;;;;;;;;;;;;;;;26.36;45.50;100701.00;1771203;79;20151;-59
2021/07/24 09:59:24;;;;;;;;;;;;;;;26.40;45.51;100702.48;1768891;80;20160;-59
2021/07/24 10:02:03;;;;;;;;;;;;;;;26.42;45.51;100690.98;1775182;80;20211;-58
2021/07/24 10:04:39;;;;;;;;;;;;;;;26.46;45.54;100688.50;1771318;79;21068;-58
2021/07/24 10:07:07;;;;;;;;;;;;;;;26.48;45.53;100682.58;1775897;79;20189;-58
2021/07/24 10:09:36;;;;;;;;;;;;;;;26.51;45.56;100686.03;1771440;79;20245;-59
2021/07/24 10:12:04;;;;;;;;;;;;;;;26.53;45.55;100686.46;1776399;79;20668;-59
2021/07/24 10:14:30;;;;;;;;;;;;;;;26.54;45.56;100680.53;1776347;79;20182;-59
2021/07/24 10:16:57;;;;;;;;;;;;;;;26.56;45.60;100681.58;1771449;80;21322;-61
2021/07/24 10:19:24;;;;;;;;;;;;;;;26.58;45.61;100684.22;1772510;80;20470;-59
2021/07/24 10:21:51;;;;;;;;;;;;;;;26.62;45.62;100687.09;1774127;80;20140;-61
2021/07/24 10:24:17;;;;;;;;;;;;;;;26.63;45.67;100685.92;1775229;80;20164;-62
2021/07/24 10:26:55;;;;;;;;;;;;;;;26.66;45.65;100690.78;1779360;80;20183;-59
2021/07/24 10:29:36;;;;;;;;;;;;;;;26.67;45.67;100693.80;1776772;79;21899;-60
2021/07/24 10:32:08;;;;;;;;;;;;;;;26.69;45.68;100689.46;1775312;79;20153;-58
2021/07/24 10:34:34;;;;;;;;;;;;;;;26.72;45.69;100687.95;1776098;80;20160;-61
2021/07/24 10:37:00;;;;;;;;;;;;;;;26.74;45.69;100682.22;1775076;79;20455;-58
2021/07/24 10:39:26;;;;;;;;;;;;;;;26.75;45.70;100679.66;1775442;79;20831;-58
2021/07/24 10:41:52;;;;;;;;;;;;;;;26.78;45.73;100680.90;1777332;79;20870;-58
2021/07/24 10:44:39;;;;;;;;;;;;;;;26.79;45.72;100677.75;1776109;79;20237;-58
2021/07/24 10:47:07;;;;;;;;;;;;;;;26.82;45.77;100679.00;1777956;79;20508;-59
2021/07/24 10:49:37;;;;;;;;;;;;;;;26.83;45.78;100670.86;1779843;79;20500;-59
2021/07/24 10:52:07;;;;;;;;;;;;;;;26.84;45.81;100669.69;1774660;79;20203;-58
2021/07/24 10:54:36;;;;;;;;;;;;;;;26.85;45.83;100662.16;1773771;79;21071;-58
2021/07/24 10:57:03;;;;;;;;;;;;;;;26.87;45.87;100661.19;1773543;79;20211;-58
2021/07/24 10:59:29;;;;;;;;;;;;;;;26.88;45.89;100664.22;1777416;79;20643;-58
2021/07/24 11:01:56;;;;;;;;;;;;;;;26.91;45.94;100664.88;1776481;79;20989;-59
2021/07/24 11:04:41;;;;;;;;;;;;;;;26.91;45.98;100661.50;1774928;79;20256;-58
2021/07/24 11:07:24;;;;;;;;;;;;;;;26.93;46.00;100664.75;1779182;79;21181;-59
2021/07/24 11:09:56;;;;;;;;;;;;;;;26.96;46.02;100664.59;1775658;79;20184;-58
2021/07/24 11:12:35;;;;;;;;;;;;;;;26.97;46.06;100662.84;1779314;79;20211;-58
2021/07/24 11:15:04;;;;;;;;;;;;;;;26.98;46.06;100659.47;1776583;79;20372;-59
2021/07/24 11:17:30;;;;;;;;;;;;;;;26.98;46.12;100656.09;1776612;80;20246;-59
2021/07/24 11:19:59;;;;;;;;;;;;;;;27.00;46.13;100650.94;1775823;79;21543;-58
2021/07/24 11:22:27;;;;;;;;;;;;;;;27.02;46.16;100651.98;1774530;79;20318;-58
2021/07/24 11:25:00;;;;;;;;;;;;;;;27.03;46.18;100661.98;1775071;79;20259;-58
2021/07/24 11:27:33;;;;;;;;;;;;;;;27.04;46.19;100662.19;1776937;79;20168;-58
2021/07/24 11:30:06;;;;;;;;;;;;;;;27.06;46.22;100657.06;1775013;79;20303;-59
2021/07/24 11:32:40;;;;;;;;;;;;;;;27.07;46.24;100649.72;1801467;78;21206;-58
2021/07/24 11:35:10;;;;;;;;;;;;;;;27.07;46.26;100653.91;1797510;78;20280;-58
2021/07/24 11:37:42;;;;;;;;;;;;;;;27.09;46.28;100650.15;1797580;78;20194;-59
2021/07/24 11:40:14;;;;;;;;;;;;;;;27.10;46.28;100652.36;1798156;78;20139;-59
2021/07/24 11:42:40;;;;;;;;;;;;;;;27.12;46.31;100659.77;1798495;78;20571;-59
2021/07/24 11:45:07;;;;;;;;;;;;;;;27.12;46.32;100655.00;1796327;78;20967;-59
2021/07/24 11:47:33;;;;;;;;;;;;;;;27.14;46.36;100647.08;1797136;78;20151;-58
2021/07/24 11:50:18;;;;;;;;;;;;;;;27.15;46.37;100649.28;1796880;78;20822;-58
2021/07/24 11:52:50;;;;;;;;;;;;;;;27.15;46.38;100651.49;1798204;78;20187;-59
2021/07/24 11:55:26;;;;;;;;;;;;;;;27.17;46.40;100653.32;1795291;78;20180;-58
2021/07/24 11:58:04;;;;;;;;;;;;;;;27.19;46.42;100651.56;1798839;78;21073;-59
2021/07/24 12:00:34;;;;;;;;;;;;;;;27.19;46.42;100649.59;1794550;78;20472;-59
2021/07/24 12:03:12;;;;;;;;;;;;;;;27.21;46.44;100653.39;1795929;78;20210;-57
2021/07/24 12:05:38;;;;;;;;;;;;;;;27.21;46.46;100643.03;1793507;78;21830;-58
2021/07/24 12:08:05;;;;;;;;;;;;;;;27.22;46.45;100644.66;1790968;78;20196;-58
2021/07/24 12:10:39;;;;;;;;;;;;;;;27.22;46.47;100639.06;1795383;78;21237;-59
2021/07/24 12:13:06;;;;;;;;;;;;;;;27.23;46.48;100637.90;1795323;78;20238;-59
2021/07/24 12:16:04;;;;;;;;;;;;;;;27.24;46.51;100639.50;1796228;78;20224;-57
2021/07/24 12:18:36;;;;;;;;;;;;;;;27.25;46.52;100635.53;1795187;78;20180;-59
2021/07/24 12:21:14;;;;;;;;;;;;;;;27.26;46.53;100635.77;1786203;78;20143;-58
2021/07/24 12:23:44;;;;;;;;;;;;;;;27.28;46.52;100629.82;1796699;78;21113;-58
2021/07/24 12:26:14;;;;;;;;;;;;;;;27.28;46.54;100626.21;1798115;78;20211;-58
2021/07/24 12:28:41;;;;;;;;;;;;;;;27.30;46.55;100627.45;1791353;78;20203;-58
2021/07/24 12:31:20;;;;;;;;;;;;;;;27.30;46.55;100629.43;1786778;78;20255;-58
2021/07/24 12:33:53;;;;;;;;;;;;;;;27.31;46.55;100621.28;1773354;78;20217;-57
2021/07/24 12:36:21;;;;;;;;;;;;;;;27.32;46.57;100629.89;1774381;79;21322;-58
2021/07/24 12:38:47;;;;;;;;;;;;;;;27.34;46.59;100621.93;1770078;78;20235;-57
2021/07/24 12:41:13;;;;;;;;;;;;;;;27.35;46.58;100617.97;1774108;78;20209;-58